Plancius — PBQK — position and weather

sailwx.info

Track history (hours):
 
Tides and Currents Weather Stations Pressure Air Temp Water Temp Dewpoint Dewpoint Depression Visibility Wind Speed Wind Dir Waves Ship Positions

Plancius

Last reported at 2019-Jul-19 19:01 UTC. Time now 2019-Jul-19 19:11 UTC.
Position N 78°41' E 010°17'.

Length 90 m; draft 5.2 m.

Type: Passenger vessel. MMSI: 246573000.

Date/timePositionNaut miles runAvg speedWind from/ knotsBaromVisibWave heightAir tempDewpointWater temp
2019-Jul-19 19:01N 78°41' E 010°17'610.1
2019-Jul-19 18:28N 78°46' E 010°15'510.2
2019-Jul-19 18:00N 78°51' E 010°13'5 9.8
2019-Jul-19 17:30N 78°56' E 010°12'5 9.3
2019-Jul-19 17:00N 78°57' E 010°34'5 9.7
2019-Jul-19 16:30N 78°57' E 010°60'510.7
2019-Jul-19 16:00N 78°53' E 011°17'611.3
2019-Jul-19 15:30N 78°47' E 011°20'3 5.0
2019-Jul-19 14:58N 78°45' E 011°22'0 0.1
2019-Jul-19 14:31N 78°45' E 011°22'0 0.6
2019-Jul-19 13:59N 78°45' E 011°21'0 0.7
2019-Jul-19 13:22N 78°46' E 011°21'0 1.2
2019-Jul-19 12:59N 78°45' E 011°22'0 0.6
2019-Jul-19 12:30N 78°45' E 011°22'0 0.3
2019-Jul-19 12:00N 78°45' E 011°22'2 3.0
2019-Jul-19 11:30N 78°46' E 011°20'1 2.8
2019-Jul-19 11:00N 78°48' E 011°19'3 6.0
2019-Jul-19 10:29N 78°51' E 011°17'3 6.0
2019-Jul-19 10:00N 78°54' E 011°14'3 6.1
2019-Jul-19 09:30N 78°57' E 011°08'3 5.7
2019-Jul-19 09:00N 78°59' E 010°58'3 6.1
2019-Jul-19 08:29N 79°01' E 010°46'3 6.3
2019-Jul-19 08:00N 79°03' E 010°34'3 6.3
2019-Jul-19 07:30N 79°05' E 010°22'3 6.1
2019-Jul-19 07:00N 79°07' E 010°10'3 6.1
2019-Jul-19 06:30N 79°09' E 009°59'3 6.0
2019-Jul-19 06:00N 79°12' E 009°53'3 6.5
2019-Jul-19 05:30N 79°15' E 009°48'5 9.8
2019-Jul-19 04:59N 79°20' E 009°43'  
2019-Jul-16 01:00N 79°42' E 018°12'6 6.0 1020.0
2019-Jul-16 00:00N 79°48' E 018°12'1 1.1 1019.9
2019-Jul-15 23:00N 79°48' E 018°06'12 3.1 1019.5
2019-Jul-15 19:00N 80°00' E 017°48'10 5.1 1017.9
2019-Jul-15 17:00N 80°06' E 017°00'9 8.6 1018.2
2019-Jul-15 16:00N 80°12' E 016°24'9 3.1 1018.0
2019-Jul-15 13:00N 80°18' E 015°42'79 3.1 1017.8
2019-Jul-14 11:22N 79°21' E 010°27'411.2
2019-Jul-14 11:00N 79°17' E 010°28'511.1
2019-Jul-14 10:30N 79°12' E 010°30'611.1
2019-Jul-14 10:00N 79°06' E 010°32'611.1
2019-Jul-14 09:30N 79°01' E 010°34'510.9
2019-Jul-14 09:00N 78°55' E 010°36'1 1.0
2019-Jul-14 08:30N 78°55' E 010°35'0 0.1
2019-Jul-14 08:00N 78°55' E 010°36'0 0.0
2019-Jul-14 07:30N 78°55' E 010°36'0 0.0
2019-Jul-14 07:00N 78°55' E 010°36'0 0.1
2019-Jul-14 06:30N 78°55' E 010°36'0 0.0
2019-Jul-14 06:00N 78°55' E 010°36'0 0.7
2019-Jul-14 05:30N 78°55' E 010°35'2 3.6
2019-Jul-14 05:00N 78°57' E 010°31'31187.2
2019-Jul-14 05:00N 79°00' E 010°30'1 2.8 1016.5
2019-Jul-14 04:29N 78°59' E 010°27'2 4.2
2019-Jul-14 04:00N 79°01' E 010°25'1100.6
2019-Jul-14 04:00N 79°00' E 010°24'3 5.1 1016.4
2019-Jul-14 03:30N 79°02' E 010°33'1 2.7
2019-Jul-14 03:00N 79°03' E 010°38'3305.8
2019-Jul-14 03:00N 79°06' E 010°36'3 6.4 1016.6
2019-Jul-14 02:30N 79°03' E 010°37'3 6.1
2019-Jul-14 02:00N 79°06' E 010°36'310675.8 1016.6
2019-Jul-14 01:59N 79°03' E 010°36'0 0.6
2019-Jul-14 01:30N 79°03' E 010°34'0 0.4
2019-Jul-14 01:00N 79°03' E 010°33'3195.1
2019-Jul-14 01:00N 79°06' E 010°36'3 6.2 1016.4
2019-Jul-14 00:30N 79°03' E 010°32'0 0.5
2019-Jul-14 00:00N 79°03' E 010°31'3289.4
2019-Jul-14 00:00N 79°06' E 010°30'3 6.1 1016.5
2019-Jul-13 23:30N 79°03' E 010°29'0 0.6
2019-Jul-13 23:00N 79°03' E 010°28'3622.7
2019-Jul-13 23:00N 79°06' E 010°30'3 6.6 1016.5
2019-Jul-13 22:30N 79°03' E 010°26'0 0.2
2019-Jul-13 22:00N 79°03' E 010°27'3200.3
2019-Jul-13 22:00N 79°06' E 010°30'4 7.8 1016.4
2019-Jul-13 21:30N 79°02' E 010°36'2 4.2
2019-Jul-13 21:00N 79°02' E 010°47'2 4.1
2019-Jul-13 20:30N 79°01' E 010°57'2 4.0
2019-Jul-13 20:00N 79°01' E 011°08'2 4.1
2019-Jul-13 19:30N 79°01' E 011°18'2 4.1
2019-Jul-13 19:00N 79°00' E 011°29'3 6.5
2019-Jul-13 18:30N 78°58' E 011°43'4 7.3
2019-Jul-13 17:59N 78°56' E 011°59'4 7.8
2019-Jul-13 17:31N 78°54' E 012°15'1 2.3
2019-Jul-13 17:00N 78°54' E 012°21'1 2.3
2019-Jul-13 16:30N 78°54' E 012°16'4 8.4
2019-Jul-13 16:00N 78°56' E 011°55'0 0.1
2019-Jul-13 15:30N 78°56' E 011°56'0 0.0
2019-Jul-13 15:00N 78°56' E 011°56'0 0.0
2019-Jul-13 14:30N 78°56' E 011°56'0 0.0
2019-Jul-13 14:00N 78°56' E 011°56'0 0.0
2019-Jul-13 13:30N 78°56' E 011°56'0 0.0
2019-Jul-13 13:00N 78°56' E 011°56'0 0.0
2019-Jul-13 12:30N 78°56' E 011°56'0 0.0
2019-Jul-13 12:00N 78°56' E 011°56'0 0.5
2019-Jul-13 11:30N 78°56' E 011°57'2 3.4
2019-Jul-13 11:00N 78°57' E 012°04'0 0.0
2019-Jul-13 10:30N 78°57' E 012°04'0 0.0
2019-Jul-13 10:00N 78°57' E 012°04'0 0.0
2019-Jul-13 09:30N 78°57' E 012°04'0 0.0
2019-Jul-13 09:00N 78°57' E 012°04'0 0.0
2019-Jul-13 08:30N 78°57' E 012°04'0 0.0
2019-Jul-13 08:00N 78°57' E 012°04'0 0.0
2019-Jul-13 07:30N 78°57' E 012°04'0 0.0
2019-Jul-13 07:00N 78°57' E 012°04'1 2.6
2019-Jul-13 06:30N 78°58' E 011°58'3 5.8
2019-Jul-13 05:59N 78°59' E 011°43'3 5.4
2019-Jul-13 05:28N 78°60' E 011°30'3 5.5
2019-Jul-13 04:59N 78°60' E 011°16'3 5.5
2019-Jul-13 04:30N 78°60' E 011°01'2 4.5
2019-Jul-13 03:59N 78°59' E 010°49'2 4.4
2019-Jul-13 03:30N 78°59' E 010°38'2 4.6
2019-Jul-13 03:00N 78°58' E 010°27'2311.8
2019-Jul-13 03:00N 79°00' E 010°30'511.0 1015.2
2019-Jul-13 02:30N 78°56' E 010°13'3 6.8
2019-Jul-13 02:00N 78°52' E 010°12'5 8.0
2019-Jul-13 01:22N 78°47' E 010°14'514.0
2019-Jul-13 01:00N 78°42' E 010°18'249.5 1015.4
2019-Jul-13 00:57N 78°44' E 010°16'610.9
2019-Jul-13 00:23N 78°38' E 010°22'411.0
2019-Jul-13 00:00N 78°34' E 010°31'711.0
2019-Jul-12 23:25N 78°28' E 010°44'410.8
2019-Jul-12 23:00N 78°24' E 010°55'0 9.5
2019-Jul-12 23:00N 78°24' E 010°54'611.3 1015.2
2019-Jul-12 22:30N 78°19' E 011°08'510.6
2019-Jul-12 22:00N 78°15' E 011°21'3222.1
2019-Jul-12 22:00N 78°18' E 011°18'817.1 1015.1
2019-Jul-12 21:30N 78°11' E 011°39'5 9.9
2019-Jul-12 21:00N 78°09' E 012°01'3467.2
2019-Jul-12 21:00N 78°12' E 012°00'612.2 1015.1
2019-Jul-12 20:30N 78°09' E 012°26'510.5
2019-Jul-12 20:00N 78°10' E 012°51'2344.5
2019-Jul-12 20:00N 78°12' E 012°54'510.1 1015.1
2019-Jul-12 19:30N 78°10' E 013°16'5 9.6
2019-Jul-12 19:00N 78°10' E 013°39'2110.3
2019-Jul-12 19:00N 78°12' E 013°42'4 9.0 1015.0
2019-Jul-12 18:30N 78°12' E 014°03'510.2
2019-Jul-12 18:00N 78°13' E 014°28'510.1
2019-Jul-12 17:29N 78°14' E 014°52'5 9.9
2019-Jul-12 17:00N 78°16' E 015°15'2189.7
2019-Jul-12 17:00N 78°18' E 015°18'510.2 1014.9
2019-Jul-12 16:30N 78°15' E 015°36'1 1.1
2019-Jul-12 16:00N 78°14' E 015°37'2350.2
2019-Jul-12 16:00N 78°12' E 015°36'2 4.1 1015.0
2019-Jul-12 15:30N 78°14' E 015°37'0 0.0
2019-Jul-12 15:00N 78°14' E 015°37'2333.4
2019-Jul-12 15:00N 78°12' E 015°36'2 4.1 1014.9
2019-Jul-12 14:30N 78°14' E 015°37'0 0.0
2019-Jul-12 14:00N 78°14' E 015°37'2331.3
2019-Jul-12 14:00N 78°12' E 015°36'2 4.1 1014.9
2019-Jul-12 13:30N 78°14' E 015°37'0 0.0
2019-Jul-12 13:00N 78°14' E 015°37'2281.3
2019-Jul-12 13:00N 78°12' E 015°36'2 4.1 1014.8
2019-Jul-12 12:30N 78°14' E 015°37'0 0.1
2019-Jul-12 12:00N 78°14' E 015°37'2330.2
2019-Jul-12 12:00N 78°12' E 015°36'2 4.1 1014.7
2019-Jul-12 11:30N 78°14' E 015°37'0 0.0
2019-Jul-12 11:00N 78°14' E 015°37'2315.7
2019-Jul-12 11:00N 78°12' E 015°36'2 4.1 1014.6
2019-Jul-12 10:30N 78°14' E 015°37'0 0.0
2019-Jul-12 10:00N 78°14' E 015°37'2303.7
2019-Jul-12 10:00N 78°12' E 015°36'2 4.1 1014.6
2019-Jul-12 09:30N 78°14' E 015°37'0 0.0
2019-Jul-12 09:00N 78°14' E 015°37'2366.6
2019-Jul-12 09:00N 78°12' E 015°36'2 4.1 1014.4
2019-Jul-12 08:30N 78°14' E 015°37'0 0.0
2019-Jul-12 08:00N 78°14' E 015°37'2369.0
2019-Jul-12 08:00N 78°12' E 015°36'2 4.2 1014.3
2019-Jul-12 07:30N 78°14' E 015°37'0 0.0
2019-Jul-12 07:00N 78°14' E 015°37'2335.4
2019-Jul-12 07:00N 78°12' E 015°36'2 4.1 1014.2
2019-Jul-12 06:30N 78°14' E 015°37'0 0.0
2019-Jul-12 06:00N 78°14' E 015°37'2432.4
2019-Jul-12 06:00N 78°12' E 015°36'2 4.2 1014.1
2019-Jul-12 05:30N 78°14' E 015°37'0 0.0
2019-Jul-12 05:00N 78°14' E 015°37'2372.9
2019-Jul-12 05:00N 78°12' E 015°36'2 4.1 1014.1
2019-Jul-12 04:30N 78°14' E 015°37'0 0.0
2019-Jul-12 04:00N 78°14' E 015°37'2353.3
2019-Jul-12 04:00N 78°12' E 015°36'2 4.2 1014.2
2019-Jul-12 03:30N 78°14' E 015°37'0 0.0
2019-Jul-12 03:00N 78°14' E 015°37'2322.3
2019-Jul-12 03:00N 78°12' E 015°36'2 2.1 1014.5
2019-Jul-12 02:00N 78°14' E 015°37'2393.8
2019-Jul-12 02:00N 78°12' E 015°36'2 4.1 1014.4
2019-Jul-12 01:30N 78°14' E 015°37'0 0.0
2019-Jul-12 01:00N 78°14' E 015°37'2295.0
2019-Jul-12 01:00N 78°12' E 015°36'2 4.2 1014.1
2019-Jul-12 00:30N 78°14' E 015°37'0 0.0
2019-Jul-12 00:00N 78°14' E 015°37'2338.2
2019-Jul-12 00:00N 78°12' E 015°36'2 4.1 1014.3
2019-Jul-11 23:30N 78°14' E 015°37'0 0.0
2019-Jul-11 23:00N 78°14' E 015°37'2531.5
2019-Jul-11 23:00N 78°12' E 015°36'2 4.1 1014.3
2019-Jul-11 22:30N 78°14' E 015°37'0 0.1
2019-Jul-11 22:00N 78°14' E 015°37'2496.5
2019-Jul-11 22:00N 78°12' E 015°36'2 4.2 1014.2
2019-Jul-11 21:30N 78°14' E 015°37'0 0.1
2019-Jul-11 21:00N 78°14' E 015°37'2366.5
2019-Jul-11 21:00N 78°12' E 015°36'2 4.1 1013.9
2019-Jul-11 20:30N 78°14' E 015°37'0 0.0
2019-Jul-11 20:00N 78°14' E 015°37'2361.7
2019-Jul-11 20:00N 78°12' E 015°36'2 4.1 1013.9
2019-Jul-11 19:30N 78°14' E 015°37'0 0.8
2019-Jul-11 19:00N 78°14' E 015°37'2324.3
2019-Jul-11 19:00N 78°12' E 015°36'611.8 1014.0
2019-Jul-11 18:30N 78°16' E 015°16'510.4
2019-Jul-11 18:00N 78°15' E 014°51'4 8.4
2019-Jul-11 17:30N 78°14' E 014°31'4 8.5
2019-Jul-11 17:00N 78°12' E 014°12'160.1 1014.5
2019-Jul-11 16:59N 78°13' E 014°10'4 7.4
2019-Jul-11 16:30N 78°13' E 013°53'3 5.6
2019-Jul-11 16:00N 78°15' E 013°47'3167.3
2019-Jul-11 16:00N 78°18' E 013°48'3 5.3 1014.3
2019-Jul-11 15:30N 78°15' E 013°47'0 0.0
2019-Jul-11 15:00N 78°15' E 013°47'3162.0
2019-Jul-11 15:00N 78°18' E 013°48'3 5.3 1014.5
2019-Jul-11 14:30N 78°15' E 013°47'0 0.0
2019-Jul-11 14:00N 78°15' E 013°47'3157.8
2019-Jul-11 14:00N 78°18' E 013°48'3 5.3 1014.4
2019-Jul-11 13:30N 78°15' E 013°47'0 0.0
2019-Jul-11 13:00N 78°15' E 013°47'3162.5
2019-Jul-11 13:00N 78°18' E 013°48'3 5.3 1014.4
2019-Jul-11 12:30N 78°15' E 013°47'2 3.1
2019-Jul-11 12:00N 78°14' E 013°50'2180.3
2019-Jul-11 12:00N 78°12' E 013°48'9 8.6 1014.2
2019-Jul-11 11:00N 78°12' E 013°06'1010.4 1014.5
2019-Jul-11 10:00N 78°18' E 012°24'9 8.5 1014.2
2019-Jul-11 09:00N 78°24' E 011°54'0 0.0 1013.8
2019-Jul-11 08:00N 78°24' E 011°54'0 0.0 1013.8
2019-Jul-11 07:00N 78°24' E 011°54'0 0.0 1013.7
2019-Jul-11 06:00N 78°24' E 011°54'1 1.2 1013.5
2019-Jul-11 05:00N 78°24' E 012°00'6 6.5 1013.5
2019-Jul-11 04:00N 78°18' E 012°12'1 1.2 1013.7
2019-Jul-11 03:00N 78°18' E 012°18'6 6.1 1013.8
2019-Jul-11 02:00N 78°12' E 012°12'6 6.1 1013.8
2019-Jul-11 01:00N 78°12' E 011°42'8 7.7 1013.9
2019-Jul-11 00:00N 78°18' E 011°18'9 8.5 1014.0
2019-Jul-10 23:00N 78°24' E 010°48'9 9.4 1013.9
2019-Jul-10 22:00N 78°30' E 010°12'1414.0 1013.8
2019-Jul-10 21:00N 78°42' E 009°36'6 6.4 1014.0
2019-Jul-10 20:00N 78°48' E 009°24'2412.0 1014.0
2019-Jul-10 18:00N 79°12' E 009°18'1212.0 1014.2
2019-Jul-10 17:00N 79°24' E 009°18'6 6.1 1014.2
2019-Jul-10 16:00N 79°30' E 009°24'1313.2 1014.4
2019-Jul-10 15:00N 79°42' E 009°54'8 8.0 1014.4
2019-Jul-10 14:00N 79°48' E 010°24'19 3.8 1014.4
2019-Jul-10 09:00N 79°48' E 012°12'1 1.1 1014.4
2019-Jul-10 08:00N 79°48' E 012°06'0 0.0 1014.4
2019-Jul-10 07:00N 79°48' E 012°06'0 0.0 1014.3
2019-Jul-10 06:00N 79°48' E 012°06'0 0.0 1014.0
2019-Jul-10 05:00N 79°48' E 012°06'1 1.1 1013.9
2019-Jul-10 04:00N 79°48' E 012°00'   1013.9
Track history (hours):
 
Tides and Currents Weather Stations Pressure Air Temp Water Temp Dewpoint Dewpoint Depression Visibility Wind Speed Wind Dir Waves Ship Positions

Plancius

Last reported at 2019-Jul-19 19:01 UTC. Time now 2019-Jul-19 19:11 UTC.
Position N 78°41' E 010°17'.

Length 90 m; draft 5.2 m.

Type: Passenger vessel. MMSI: 246573000.

Date/timePositionNaut miles runAvg speedWind from/ knotsBaromVisibWave heightAir tempDewpointWater temp
2019-Jul-19 19:01N 78°41' E 010°17'610.1
2019-Jul-19 18:28N 78°46' E 010°15'510.2
2019-Jul-19 18:00N 78°51' E 010°13'5 9.8
2019-Jul-19 17:30N 78°56' E 010°12'5 9.3
2019-Jul-19 17:00N 78°57' E 010°34'5 9.7
2019-Jul-19 16:30N 78°57' E 010°60'510.7
2019-Jul-19 16:00N 78°53' E 011°17'611.3
2019-Jul-19 15:30N 78°47' E 011°20'3 5.0
2019-Jul-19 14:58N 78°45' E 011°22'0 0.1
2019-Jul-19 14:31N 78°45' E 011°22'0 0.6
2019-Jul-19 13:59N 78°45' E 011°21'0 0.7
2019-Jul-19 13:22N 78°46' E 011°21'0 1.2
2019-Jul-19 12:59N 78°45' E 011°22'0 0.6
2019-Jul-19 12:30N 78°45' E 011°22'0 0.3
2019-Jul-19 12:00N 78°45' E 011°22'2 3.0
2019-Jul-19 11:30N 78°46' E 011°20'1 2.8
2019-Jul-19 11:00N 78°48' E 011°19'3 6.0
2019-Jul-19 10:29N 78°51' E 011°17'3 6.0
2019-Jul-19 10:00N 78°54' E 011°14'3 6.1
2019-Jul-19 09:30N 78°57' E 011°08'3 5.7
2019-Jul-19 09:00N 78°59' E 010°58'3 6.1
2019-Jul-19 08:29N 79°01' E 010°46'3 6.3
2019-Jul-19 08:00N 79°03' E 010°34'3 6.3
2019-Jul-19 07:30N 79°05' E 010°22'3 6.1
2019-Jul-19 07:00N 79°07' E 010°10'3 6.1
2019-Jul-19 06:30N 79°09' E 009°59'3 6.0
2019-Jul-19 06:00N 79°12' E 009°53'3 6.5
2019-Jul-19 05:30N 79°15' E 009°48'5 9.8
2019-Jul-19 04:59N 79°20' E 009°43'  
2019-Jul-16 01:00N 79°42' E 018°12'6 6.0 1020.0
2019-Jul-16 00:00N 79°48' E 018°12'1 1.1 1019.9
2019-Jul-15 23:00N 79°48' E 018°06'12 3.1 1019.5
2019-Jul-15 19:00N 80°00' E 017°48'10 5.1 1017.9
2019-Jul-15 17:00N 80°06' E 017°00'9 8.6 1018.2
2019-Jul-15 16:00N 80°12' E 016°24'9 3.1 1018.0
2019-Jul-15 13:00N 80°18' E 015°42'79 3.1 1017.8
2019-Jul-14 11:22N 79°21' E 010°27'411.2
2019-Jul-14 11:00N 79°17' E 010°28'511.1
2019-Jul-14 10:30N 79°12' E 010°30'611.1
2019-Jul-14 10:00N 79°06' E 010°32'611.1
2019-Jul-14 09:30N 79°01' E 010°34'510.9
2019-Jul-14 09:00N 78°55' E 010°36'1 1.0
2019-Jul-14 08:30N 78°55' E 010°35'0 0.1
2019-Jul-14 08:00N 78°55' E 010°36'0 0.0
2019-Jul-14 07:30N 78°55' E 010°36'0 0.0
2019-Jul-14 07:00N 78°55' E 010°36'0 0.1
2019-Jul-14 06:30N 78°55' E 010°36'0 0.0
2019-Jul-14 06:00N 78°55' E 010°36'0 0.7
2019-Jul-14 05:30N 78°55' E 010°35'2 3.6
2019-Jul-14 05:00N 78°57' E 010°31'31187.2
2019-Jul-14 05:00N 79°00' E 010°30'1 2.8 1016.5
2019-Jul-14 04:29N 78°59' E 010°27'2 4.2
2019-Jul-14 04:00N 79°01' E 010°25'1100.6
2019-Jul-14 04:00N 79°00' E 010°24'3 5.1 1016.4
2019-Jul-14 03:30N 79°02' E 010°33'1 2.7
2019-Jul-14 03:00N 79°03' E 010°38'3305.8
2019-Jul-14 03:00N 79°06' E 010°36'3 6.4 1016.6
2019-Jul-14 02:30N 79°03' E 010°37'3 6.1
2019-Jul-14 02:00N 79°06' E 010°36'310675.8 1016.6
2019-Jul-14 01:59N 79°03' E 010°36'0 0.6
2019-Jul-14 01:30N 79°03' E 010°34'0 0.4
2019-Jul-14 01:00N 79°03' E 010°33'3195.1
2019-Jul-14 01:00N 79°06' E 010°36'3 6.2 1016.4
2019-Jul-14 00:30N 79°03' E 010°32'0 0.5
2019-Jul-14 00:00N 79°03' E 010°31'3289.4
2019-Jul-14 00:00N 79°06' E 010°30'3 6.1 1016.5
2019-Jul-13 23:30N 79°03' E 010°29'0 0.6
2019-Jul-13 23:00N 79°03' E 010°28'3622.7
2019-Jul-13 23:00N 79°06' E 010°30'3 6.6 1016.5
2019-Jul-13 22:30N 79°03' E 010°26'0 0.2
2019-Jul-13 22:00N 79°03' E 010°27'3200.3
2019-Jul-13 22:00N 79°06' E 010°30'4 7.8 1016.4
2019-Jul-13 21:30N 79°02' E 010°36'2 4.2
2019-Jul-13 21:00N 79°02' E 010°47'2 4.1
2019-Jul-13 20:30N 79°01' E 010°57'2 4.0
2019-Jul-13 20:00N 79°01' E 011°08'2 4.1
2019-Jul-13 19:30N 79°01' E 011°18'2 4.1
2019-Jul-13 19:00N 79°00' E 011°29'3 6.5
2019-Jul-13 18:30N 78°58' E 011°43'4 7.3
2019-Jul-13 17:59N 78°56' E 011°59'4 7.8
2019-Jul-13 17:31N 78°54' E 012°15'1 2.3
2019-Jul-13 17:00N 78°54' E 012°21'1 2.3
2019-Jul-13 16:30N 78°54' E 012°16'4 8.4
2019-Jul-13 16:00N 78°56' E 011°55'0 0.1
2019-Jul-13 15:30N 78°56' E 011°56'0 0.0
2019-Jul-13 15:00N 78°56' E 011°56'0 0.0
2019-Jul-13 14:30N 78°56' E 011°56'0 0.0
2019-Jul-13 14:00N 78°56' E 011°56'0 0.0
2019-Jul-13 13:30N 78°56' E 011°56'0 0.0
2019-Jul-13 13:00N 78°56' E 011°56'0 0.0
2019-Jul-13 12:30N 78°56' E 011°56'0 0.0
2019-Jul-13 12:00N 78°56' E 011°56'0 0.5
2019-Jul-13 11:30N 78°56' E 011°57'2 3.4
2019-Jul-13 11:00N 78°57' E 012°04'0 0.0
2019-Jul-13 10:30N 78°57' E 012°04'0 0.0
2019-Jul-13 10:00N 78°57' E 012°04'0 0.0
2019-Jul-13 09:30N 78°57' E 012°04'0 0.0
2019-Jul-13 09:00N 78°57' E 012°04'0 0.0
2019-Jul-13 08:30N 78°57' E 012°04'0 0.0
2019-Jul-13 08:00N 78°57' E 012°04'0 0.0
2019-Jul-13 07:30N 78°57' E 012°04'0 0.0
2019-Jul-13 07:00N 78°57' E 012°04'1 2.6
2019-Jul-13 06:30N 78°58' E 011°58'3 5.8
2019-Jul-13 05:59N 78°59' E 011°43'3 5.4
2019-Jul-13 05:28N 78°60' E 011°30'3 5.5
2019-Jul-13 04:59N 78°60' E 011°16'3 5.5
2019-Jul-13 04:30N 78°60' E 011°01'2 4.5
2019-Jul-13 03:59N 78°59' E 010°49'2 4.4
2019-Jul-13 03:30N 78°59' E 010°38'2 4.6
2019-Jul-13 03:00N 78°58' E 010°27'2311.8
2019-Jul-13 03:00N 79°00' E 010°30'511.0 1015.2
2019-Jul-13 02:30N 78°56' E 010°13'3 6.8
2019-Jul-13 02:00N 78°52' E 010°12'5 8.0
2019-Jul-13 01:22N 78°47' E 010°14'514.0
2019-Jul-13 01:00N 78°42' E 010°18'249.5 1015.4
2019-Jul-13 00:57N 78°44' E 010°16'610.9
2019-Jul-13 00:23N 78°38' E 010°22'411.0
2019-Jul-13 00:00N 78°34' E 010°31'711.0
2019-Jul-12 23:25N 78°28' E 010°44'410.8
2019-Jul-12 23:00N 78°24' E 010°55'0 9.5
2019-Jul-12 23:00N 78°24' E 010°54'611.3 1015.2
2019-Jul-12 22:30N 78°19' E 011°08'510.6
2019-Jul-12 22:00N 78°15' E 011°21'3222.1
2019-Jul-12 22:00N 78°18' E 011°18'817.1 1015.1
2019-Jul-12 21:30N 78°11' E 011°39'5 9.9
2019-Jul-12 21:00N 78°09' E 012°01'3467.2
2019-Jul-12 21:00N 78°12' E 012°00'612.2 1015.1
2019-Jul-12 20:30N 78°09' E 012°26'510.5
2019-Jul-12 20:00N 78°10' E 012°51'2344.5
2019-Jul-12 20:00N 78°12' E 012°54'510.1 1015.1
2019-Jul-12 19:30N 78°10' E 013°16'5 9.6
2019-Jul-12 19:00N 78°10' E 013°39'2110.3
2019-Jul-12 19:00N 78°12' E 013°42'4 9.0 1015.0
2019-Jul-12 18:30N 78°12' E 014°03'510.2
2019-Jul-12 18:00N 78°13' E 014°28'510.1
2019-Jul-12 17:29N 78°14' E 014°52'5 9.9
2019-Jul-12 17:00N 78°16' E 015°15'2189.7
2019-Jul-12 17:00N 78°18' E 015°18'510.2 1014.9
2019-Jul-12 16:30N 78°15' E 015°36'1 1.1
2019-Jul-12 16:00N 78°14' E 015°37'2350.2
2019-Jul-12 16:00N 78°12' E 015°36'2 4.1 1015.0
2019-Jul-12 15:30N 78°14' E 015°37'0 0.0
2019-Jul-12 15:00N 78°14' E 015°37'2333.4
2019-Jul-12 15:00N 78°12' E 015°36'2 4.1 1014.9
2019-Jul-12 14:30N 78°14' E 015°37'0 0.0
2019-Jul-12 14:00N 78°14' E 015°37'2331.3
2019-Jul-12 14:00N 78°12' E 015°36'2 4.1 1014.9
2019-Jul-12 13:30N 78°14' E 015°37'0 0.0
2019-Jul-12 13:00N 78°14' E 015°37'2281.3
2019-Jul-12 13:00N 78°12' E 015°36'2 4.1 1014.8
2019-Jul-12 12:30N 78°14' E 015°37'0 0.1
2019-Jul-12 12:00N 78°14' E 015°37'2330.2
2019-Jul-12 12:00N 78°12' E 015°36'2 4.1 1014.7
2019-Jul-12 11:30N 78°14' E 015°37'0 0.0
2019-Jul-12 11:00N 78°14' E 015°37'2315.7
2019-Jul-12 11:00N 78°12' E 015°36'2 4.1 1014.6
2019-Jul-12 10:30N 78°14' E 015°37'0 0.0
2019-Jul-12 10:00N 78°14' E 015°37'2303.7
2019-Jul-12 10:00N 78°12' E 015°36'2 4.1 1014.6
2019-Jul-12 09:30N 78°14' E 015°37'0 0.0
2019-Jul-12 09:00N 78°14' E 015°37'2366.6
2019-Jul-12 09:00N 78°12' E 015°36'2 4.1 1014.4
2019-Jul-12 08:30N 78°14' E 015°37'0 0.0
2019-Jul-12 08:00N 78°14' E 015°37'2369.0
2019-Jul-12 08:00N 78°12' E 015°36'2 4.2 1014.3
2019-Jul-12 07:30N 78°14' E 015°37'0 0.0
2019-Jul-12 07:00N 78°14' E 015°37'2335.4
2019-Jul-12 07:00N 78°12' E 015°36'2 4.1 1014.2
2019-Jul-12 06:30N 78°14' E 015°37'0 0.0
2019-Jul-12 06:00N 78°14' E 015°37'2432.4
2019-Jul-12 06:00N 78°12' E 015°36'2 4.2 1014.1
2019-Jul-12 05:30N 78°14' E 015°37'0 0.0
2019-Jul-12 05:00N 78°14' E 015°37'2372.9
2019-Jul-12 05:00N 78°12' E 015°36'2 4.1 1014.1
2019-Jul-12 04:30N 78°14' E 015°37'0 0.0
2019-Jul-12 04:00N 78°14' E 015°37'2353.3
2019-Jul-12 04:00N 78°12' E 015°36'2 4.2 1014.2
2019-Jul-12 03:30N 78°14' E 015°37'0 0.0
2019-Jul-12 03:00N 78°14' E 015°37'2322.3
2019-Jul-12 03:00N 78°12' E 015°36'2 2.1 1014.5
2019-Jul-12 02:00N 78°14' E 015°37'2393.8
2019-Jul-12 02:00N 78°12' E 015°36'2 4.1 1014.4
2019-Jul-12 01:30N 78°14' E 015°37'0 0.0
2019-Jul-12 01:00N 78°14' E 015°37'2295.0
2019-Jul-12 01:00N 78°12' E 015°36'2 4.2 1014.1
2019-Jul-12 00:30N 78°14' E 015°37'0 0.0
2019-Jul-12 00:00N 78°14' E 015°37'2338.2
2019-Jul-12 00:00N 78°12' E 015°36'2 4.1 1014.3
2019-Jul-11 23:30N 78°14' E 015°37'0 0.0
2019-Jul-11 23:00N 78°14' E 015°37'2531.5
2019-Jul-11 23:00N 78°12' E 015°36'2 4.1 1014.3
2019-Jul-11 22:30N 78°14' E 015°37'0 0.1
2019-Jul-11 22:00N 78°14' E 015°37'2496.5
2019-Jul-11 22:00N 78°12' E 015°36'2 4.2 1014.2
2019-Jul-11 21:30N 78°14' E 015°37'0 0.1
2019-Jul-11 21:00N 78°14' E 015°37'2366.5
2019-Jul-11 21:00N 78°12' E 015°36'2 4.1 1013.9
2019-Jul-11 20:30N 78°14' E 015°37'0 0.0
2019-Jul-11 20:00N 78°14' E 015°37'2361.7
2019-Jul-11 20:00N 78°12' E 015°36'2 4.1 1013.9
2019-Jul-11 19:30N 78°14' E 015°37'0 0.8
2019-Jul-11 19:00N 78°14' E 015°37'2324.3
2019-Jul-11 19:00N 78°12' E 015°36'611.8 1014.0
2019-Jul-11 18:30N 78°16' E 015°16'510.4
2019-Jul-11 18:00N 78°15' E 014°51'4 8.4
2019-Jul-11 17:30N 78°14' E 014°31'4 8.5
2019-Jul-11 17:00N 78°12' E 014°12'160.1 1014.5
2019-Jul-11 16:59N 78°13' E 014°10'4 7.4
2019-Jul-11 16:30N 78°13' E 013°53'3 5.6
2019-Jul-11 16:00N 78°15' E 013°47'3167.3
2019-Jul-11 16:00N 78°18' E 013°48'3 5.3 1014.3
2019-Jul-11 15:30N 78°15' E 013°47'0 0.0
2019-Jul-11 15:00N 78°15' E 013°47'3162.0
2019-Jul-11 15:00N 78°18' E 013°48'3 5.3 1014.5
2019-Jul-11 14:30N 78°15' E 013°47'0 0.0
2019-Jul-11 14:00N 78°15' E 013°47'3157.8
2019-Jul-11 14:00N 78°18' E 013°48'3 5.3 1014.4
2019-Jul-11 13:30N 78°15' E 013°47'0 0.0
2019-Jul-11 13:00N 78°15' E 013°47'3162.5
2019-Jul-11 13:00N 78°18' E 013°48'3 5.3 1014.4
2019-Jul-11 12:30N 78°15' E 013°47'2 3.1
2019-Jul-11 12:00N 78°14' E 013°50'2180.3
2019-Jul-11 12:00N 78°12' E 013°48'9 8.6 1014.2
2019-Jul-11 11:00N 78°12' E 013°06'1010.4 1014.5
2019-Jul-11 10:00N 78°18' E 012°24'9 8.5 1014.2
2019-Jul-11 09:00N 78°24' E 011°54'0 0.0 1013.8
2019-Jul-11 08:00N 78°24' E 011°54'0 0.0 1013.8
2019-Jul-11 07:00N 78°24' E 011°54'0 0.0 1013.7
2019-Jul-11 06:00N 78°24' E 011°54'1 1.2 1013.5
2019-Jul-11 05:00N 78°24' E 012°00'6 6.5 1013.5
2019-Jul-11 04:00N 78°18' E 012°12'1 1.2 1013.7
2019-Jul-11 03:00N 78°18' E 012°18'6 6.1 1013.8
2019-Jul-11 02:00N 78°12' E 012°12'6 6.1 1013.8
2019-Jul-11 01:00N 78°12' E 011°42'8 7.7 1013.9
2019-Jul-11 00:00N 78°18' E 011°18'9 8.5 1014.0
2019-Jul-10 23:00N 78°24' E 010°48'9 9.4 1013.9
2019-Jul-10 22:00N 78°30' E 010°12'1414.0 1013.8
2019-Jul-10 21:00N 78°42' E 009°36'6 6.4 1014.0
2019-Jul-10 20:00N 78°48' E 009°24'2412.0 1014.0
2019-Jul-10 18:00N 79°12' E 009°18'1212.0 1014.2
2019-Jul-10 17:00N 79°24' E 009°18'6 6.1 1014.2
2019-Jul-10 16:00N 79°30' E 009°24'1313.2 1014.4
2019-Jul-10 15:00N 79°42' E 009°54'8 8.0 1014.4
2019-Jul-10 14:00N 79°48' E 010°24'19 3.8 1014.4
2019-Jul-10 09:00N 79°48' E 012°12'1 1.1 1014.4
2019-Jul-10 08:00N 79°48' E 012°06'0 0.0 1014.4
2019-Jul-10 07:00N 79°48' E 012°06'0 0.0 1014.3
2019-Jul-10 06:00N 79°48' E 012°06'0 0.0 1014.0
2019-Jul-10 05:00N 79°48' E 012°06'1 1.1 1013.9
2019-Jul-10 04:00N 79°48' E 012°00'   1013.9

Dump ship's entire track history